createdAt,value
2018-12-24T00:02:41.548Z,0.33
2018-12-24T00:09:31.224Z,0.50
2018-12-24T00:16:21.145Z,0.80
2018-12-24T00:23:11.711Z,1.37
2018-12-24T00:30:07.334Z,1.70
2018-12-24T00:36:56.837Z,0.50
2018-12-24T01:10:10.449Z,0.33
2018-12-24T01:16:53.870Z,0.40
2018-12-24T01:23:37.293Z,0.27
2018-12-24T01:37:09.346Z,1.13
2018-12-24T01:43:52.776Z,1.13
2018-12-24T01:50:36.265Z,0.33
2018-12-24T01:57:19.845Z,0.47
2018-12-24T02:04:03.298Z,0.80
2018-12-24T02:10:46.760Z,1.80
2018-12-24T02:17:30.192Z,0.60
2018-12-24T02:24:13.610Z,0.70
2018-12-24T02:30:57.144Z,3.47
2018-12-24T02:37:40.573Z,1.77
2018-12-24T02:44:23.993Z,2.10
2018-12-24T02:51:07.470Z,2.20
2018-12-24T02:57:50.893Z,3.10
2018-12-24T03:04:34.377Z,1.77
2018-12-24T03:11:17.842Z,1.20
2018-12-24T03:18:01.273Z,0.90
2018-12-24T03:24:44.814Z,1.73
2018-12-24T03:31:28.295Z,0.70
2018-12-24T03:38:11.837Z,1.57
2018-12-24T03:44:55.178Z,0.60
2018-12-24T03:51:38.605Z,0.60
2018-12-24T03:58:22.025Z,0.60
2018-12-24T04:05:05.501Z,0.57
2018-12-24T04:11:48.941Z,0.70
2018-12-24T04:18:32.394Z,0.50
2018-12-24T04:25:15.813Z,2.07
2018-12-24T04:31:59.313Z,0.43
2018-12-24T04:38:42.749Z,2.77
2018-12-24T04:45:26.179Z,0.60
2018-12-24T04:52:09.632Z,0.63
2018-12-24T04:58:53.352Z,0.80
2018-12-24T05:05:36.777Z,0.50
2018-12-24T05:12:20.209Z,0.50
2018-12-24T05:19:03.669Z,0.40
2018-12-24T05:25:47.097Z,0.60
2018-12-24T05:32:30.634Z,1.33
2018-12-24T05:39:14.091Z,0.40
2018-12-24T05:45:57.525Z,0.87
2018-12-24T05:52:40.949Z,0.60
2018-12-24T05:59:24.463Z,0.70
2018-12-24T06:06:07.898Z,0.93
2018-12-24T06:12:51.326Z,0.80
2018-12-24T06:19:34.749Z,0.60
2018-12-24T06:26:18.295Z,0.80
2018-12-24T06:33:01.723Z,0.70
2018-12-24T06:39:45.134Z,0.70
2018-12-24T06:46:28.558Z,0.80
2018-12-24T06:53:12.029Z,0.90
2018-12-24T06:59:55.563Z,0.90
2018-12-24T07:06:39.025Z,1.03
2018-12-24T07:13:22.545Z,1.20
2018-12-24T07:20:06.056Z,1.40
2018-12-24T07:26:49.485Z,3.50
2018-12-24T07:33:32.909Z,1.50
2018-12-24T07:40:16.342Z,1.60
2018-12-24T07:46:59.811Z,2.30
2018-12-24T07:53:43.242Z,2.20
2018-12-24T08:00:26.689Z,1.00
2018-12-24T08:07:10.121Z,1.20
2018-12-24T08:13:53.566Z,0.90
2018-12-24T08:20:37.418Z,1.20
2018-12-24T08:27:20.913Z,1.30
2018-12-24T08:34:04.374Z,1.67
2018-12-24T08:40:47.809Z,1.70
2018-12-24T08:47:31.236Z,1.37
2018-12-24T08:54:14.658Z,1.40
2018-12-24T09:00:58.086Z,2.13
2018-12-24T09:07:41.538Z,1.93
2018-12-24T09:14:24.969Z,1.97
2018-12-24T09:21:08.413Z,2.13
2018-12-24T09:27:52.418Z,2.83
2018-12-24T09:34:35.841Z,3.20
2018-12-24T09:41:19.253Z,3.00
2018-12-24T09:48:25.325Z,3.97
2018-12-24T09:55:08.753Z,2.67
2018-12-24T10:01:52.181Z,3.70
2018-12-24T10:08:35.593Z,2.60
2018-12-24T10:15:19.059Z,3.17
2018-12-24T10:22:02.488Z,1.70
2018-12-24T10:29:03.073Z,2.47
2018-12-24T10:35:46.497Z,2.00
2018-12-24T10:42:29.921Z,1.67
2018-12-24T10:49:13.359Z,1.47
2018-12-24T10:55:56.802Z,4.13
2018-12-24T11:02:40.246Z,3.50
2018-12-24T11:09:23.828Z,4.40
2018-12-24T11:16:07.251Z,3.97
2018-12-24T11:22:50.674Z,4.27
2018-12-24T11:29:34.098Z,4.67
2018-12-24T11:36:17.537Z,4.60
2018-12-24T11:43:00.955Z,5.37
2018-12-24T11:49:44.378Z,2.50
2018-12-24T11:56:27.805Z,2.60
2018-12-24T12:03:12.741Z,5.57
2018-12-24T12:09:54.721Z,3.10
2018-12-24T12:16:38.137Z,5.67
2018-12-24T12:23:21.564Z,7.17
2018-12-24T12:30:06.858Z,1.20
2018-12-24T12:36:50.307Z,2.10
2018-12-24T12:43:33.733Z,3.93
2018-12-24T12:50:17.155Z,3.03
2018-12-24T12:58:00.457Z,3.17
2018-12-24T13:04:43.889Z,4.73
2018-12-24T13:11:27.358Z,5.53
2018-12-24T13:18:11.023Z,3.47
2018-12-24T13:24:54.458Z,3.47
2018-12-24T13:31:37.865Z,4.47
2018-12-24T13:38:21.309Z,4.50
2018-12-24T13:45:05.478Z,1.97
2018-12-24T13:51:48.921Z,1.50
2018-12-24T13:58:32.365Z,1.93
2018-12-24T14:05:15.787Z,2.70
2018-12-24T14:11:59.218Z,3.07
2018-12-24T14:18:42.649Z,2.67
2018-12-24T14:25:26.069Z,5.00
2018-12-24T14:32:09.486Z,3.13
2018-12-24T14:38:52.907Z,4.80
2018-12-24T14:45:36.331Z,4.10
2018-12-24T14:52:19.793Z,3.00
2018-12-24T14:59:03.256Z,4.70
2018-12-24T15:05:46.677Z,4.13
2018-12-24T15:12:30.103Z,5.20
2018-12-24T15:19:13.532Z,3.83
2018-12-24T15:25:56.957Z,3.97
2018-12-24T15:32:40.369Z,3.30
2018-12-24T15:39:23.832Z,3.90
2018-12-24T15:46:07.273Z,5.60
2018-12-24T15:52:50.709Z,5.53
2018-12-24T15:59:34.149Z,6.97
2018-12-24T16:06:17.593Z,6.63
2018-12-24T16:13:01.589Z,6.20
2018-12-24T16:19:44.542Z,7.73
2018-12-24T16:26:27.970Z,4.63
2018-12-24T16:33:11.421Z,4.40
2018-12-24T16:39:54.868Z,6.00
2018-12-24T16:46:38.302Z,4.47
2018-12-24T16:53:21.727Z,4.97
2018-12-24T17:00:05.663Z,5.77
2018-12-24T17:06:49.101Z,6.33
2018-12-24T17:13:32.509Z,6.90
2018-12-24T17:20:15.929Z,6.00
2018-12-24T17:26:59.350Z,7.43
2018-12-24T17:33:42.765Z,7.87
2018-12-24T17:40:26.209Z,6.57
2018-12-24T17:47:16.235Z,7.07
2018-12-24T17:53:53.093Z,6.90
2018-12-24T18:00:36.513Z,10.20
2018-12-24T18:07:19.932Z,8.73
2018-12-24T18:14:03.349Z,8.67
2018-12-24T18:20:46.788Z,8.73
2018-12-24T18:27:30.191Z,8.90
2018-12-24T18:34:13.605Z,9.47
2018-12-24T18:40:57.063Z,10.93
2018-12-24T18:47:40.482Z,13.00
2018-12-24T18:54:23.897Z,12.27
2018-12-24T19:01:07.317Z,15.33
2018-12-24T19:07:50.742Z,10.67
2018-12-24T19:14:34.157Z,12.93
2018-12-24T19:21:17.645Z,10.63
2018-12-24T19:28:01.060Z,12.37
2018-12-24T19:34:47.417Z,11.60
2018-12-24T19:41:32.295Z,11.57
2018-12-24T19:48:15.705Z,11.57
2018-12-24T19:54:59.123Z,11.83
2018-12-24T20:01:42.533Z,11.70
2018-12-24T20:08:32.975Z,11.20
2018-12-24T20:22:54.485Z,11.53
2018-12-24T20:29:41.801Z,13.50
2018-12-24T20:43:30.732Z,11.07
2018-12-24T20:50:14.205Z,11.47
2018-12-24T20:56:57.631Z,10.37
2018-12-24T21:03:41.049Z,8.13
2018-12-24T21:17:30.523Z,9.53
2018-12-24T21:24:13.933Z,7.63
2018-12-24T21:30:57.340Z,9.50
2018-12-24T21:37:52.073Z,6.80
2018-12-24T21:44:35.474Z,7.30
2018-12-24T21:51:18.934Z,6.07
2018-12-24T21:58:19.129Z,6.60
2018-12-24T22:05:02.541Z,8.17
2018-12-24T22:11:45.957Z,9.17
2018-12-24T22:18:32.305Z,7.90
2018-12-24T22:32:18.601Z,7.13
2018-12-24T22:39:02.051Z,10.87
2018-12-24T22:45:45.495Z,11.53
2018-12-24T22:52:28.921Z,8.63
2018-12-24T22:59:13.047Z,8.03
2018-12-24T23:05:56.448Z,7.90
2018-12-24T23:12:39.866Z,10.07
2018-12-24T23:19:23.281Z,8.63
2018-12-24T23:26:06.701Z,12.57
2018-12-24T23:32:50.114Z,8.90
2018-12-24T23:39:33.550Z,9.17
2018-12-24T23:46:16.988Z,10.20
2018-12-24T23:53:00.429Z,12.20
2018-12-24T23:59:43.849Z,8.07
